Time;durP1;ratioP1;P1;durP2;ratioP2;P2;SDS_P1;SDS_P2;PMS_P1;PMS_P2;Temp;Humidity;BMP_temperature;BMP_pressure;BME280_temperature;BME280_humidity;BME280_pressure;Samples;Min_cycle;Max_cycle;Signal;HPM_P1;HPM_P2
2021/12/12 00:02:09;;;;;;;10.65;4.53;;;;;;;;;;4974854;28;20042;-84
2021/12/12 00:04:37;;;;;;;11.73;4.72;;;;;;;;;;4957896;28;20023;-84
2021/12/12 00:07:06;;;;;;;10.40;3.90;;;;;;;;;;4958409;28;20029;-86
2021/12/12 00:09:38;;;;;;;10.63;3.67;;;;;;;;;;4957074;28;20073;-88
2021/12/12 00:12:07;;;;;;;9.90;3.90;;;;;;;;;;4957639;28;20099;-86
2021/12/12 00:14:35;;;;;;;10.48;4.40;;;;;;;;;;4973986;28;20027;-85
2021/12/12 00:17:03;;;;;;;11.20;3.78;;;;;;;;;;4974497;28;20042;-85
2021/12/12 00:19:30;;;;;;;16.20;4.43;;;;;;;;;;4974248;28;20034;-85
2021/12/12 00:21:59;;;;;;;16.40;4.18;;;;;;;;;;4974129;28;20019;-87
2021/12/12 00:24:25;;;;;;;11.60;4.80;;;;;;;;;;4957154;28;20031;-87
2021/12/12 00:26:52;;;;;;;16.60;4.32;;;;;;;;;;4957309;28;20025;-86
2021/12/12 00:29:19;;;;;;;12.18;3.72;;;;;;;;;;4952974;29;20489;-85
2021/12/12 00:31:46;;;;;;;13.50;4.03;;;;;;;;;;4955349;28;20019;-85
2021/12/12 00:34:15;;;;;;;11.48;4.20;;;;;;;;;;4970329;28;20035;-85
2021/12/12 00:36:42;;;;;;;15.75;5.00;;;;;;;;;;4971718;28;20023;-87
2021/12/12 00:39:12;;;;;;;12.55;3.92;;;;;;;;;;4971615;28;20031;-86
2021/12/12 00:41:44;;;;;;;14.30;4.22;;;;;;;;;;4955537;28;20053;-86
2021/12/12 00:44:12;;;;;;;13.52;4.55;;;;;;;;;;4972097;28;20058;-86
2021/12/12 00:46:38;;;;;;;9.80;3.72;;;;;;;;;;4955302;28;20035;-84
2021/12/12 00:49:04;;;;;;;10.85;3.20;;;;;;;;;;4955026;28;20050;-85
2021/12/12 00:51:32;;;;;;;14.25;4.32;;;;;;;;;;4954982;28;20015;-85
2021/12/12 00:53:59;;;;;;;9.48;3.40;;;;;;;;;;4956402;28;20014;-85
2021/12/12 00:56:25;;;;;;;8.10;3.10;;;;;;;;;;4974017;28;20041;-87
2021/12/12 00:58:51;;;;;;;14.05;3.97;;;;;;;;;;4973984;28;20026;-84
2021/12/12 01:01:19;;;;;;;13.13;3.78;;;;;;;;;;4972624;28;20064;-87
2021/12/12 01:03:48;;;;;;;14.48;3.58;;;;;;;;;;4973541;28;20033;-86
2021/12/12 01:06:14;;;;;;;5.22;3.60;;;;;;;;;;4973975;28;20049;-84
2021/12/12 01:08:42;;;;;;;9.18;3.33;;;;;;;;;;4956963;28;20032;-87
2021/12/12 01:11:10;;;;;;;12.25;3.67;;;;;;;;;;4974013;28;20042;-91
2021/12/12 01:13:37;;;;;;;13.13;3.40;;;;;;;;;;4956170;28;20019;-86
2021/12/12 01:16:06;;;;;;;11.68;3.25;;;;;;;;;;4973008;28;20023;-87
2021/12/12 01:18:35;;;;;;;14.48;3.45;;;;;;;;;;4956161;28;20030;-84
2021/12/12 01:21:05;;;;;;;8.73;3.20;;;;;;;;;;4973425;28;20031;-85
2021/12/12 01:23:38;;;;;;;8.35;3.33;;;;;;;;;;4972849;28;20031;-82
2021/12/12 01:26:06;;;;;;;10.65;3.17;;;;;;;;;;4973235;28;20042;-85
2021/12/12 01:28:33;;;;;;;13.25;3.30;;;;;;;;;;4956515;28;20049;-84
2021/12/12 01:31:00;;;;;;;10.77;2.92;;;;;;;;;;4937249;28;20036;-85
2021/12/12 01:33:34;;;;;;;10.30;3.80;;;;;;;;;;4937159;28;20053;-85
2021/12/12 01:36:03;;;;;;;15.63;4.20;;;;;;;;;;4948361;28;20032;-85
2021/12/12 01:41:13;;;;;;;11.73;2.97;;;;;;;;;;4942631;28;20090;-85
2021/12/12 01:43:45;;;;;;;18.98;3.22;;;;;;;;;;4941992;28;20050;-84
2021/12/12 01:46:18;;;;;;;12.55;2.95;;;;;;;;;;4924697;28;20138;-85
2021/12/12 01:49:08;;;;;;;8.85;3.17;;;;;;;;;;4941946;28;20074;-86
2021/12/12 01:51:34;;;;;;;9.88;3.10;;;;;;;;;;4929091;29;20048;-85
2021/12/12 01:54:01;;;;;;;9.77;2.95;;;;;;;;;;4941635;28;20397;-85
2021/12/12 01:56:53;;;;;;;14.82;3.40;;;;;;;;;;4943003;28;20020;-85
2021/12/12 01:59:21;;;;;;;12.27;3.20;;;;;;;;;;4961045;28;20043;-86
2021/12/12 02:01:51;;;;;;;6.13;2.70;;;;;;;;;;4966814;28;20027;-83
2021/12/12 02:04:26;;;;;;;8.73;2.63;;;;;;;;;;4964044;28;20142;-85
2021/12/12 02:06:53;;;;;;;11.73;2.97;;;;;;;;;;4981247;28;20077;-87
2021/12/12 02:09:19;;;;;;;11.95;3.10;;;;;;;;;;4981848;28;20027;-86
2021/12/12 02:11:47;;;;;;;9.10;3.13;;;;;;;;;;4980154;28;20039;-84
2021/12/12 02:14:15;;;;;;;6.60;3.05;;;;;;;;;;4947519;28;20122;-84
2021/12/12 02:16:44;;;;;;;13.30;3.60;;;;;;;;;;4964749;28;20034;-85
2021/12/12 02:19:11;;;;;;;15.48;3.15;;;;;;;;;;4965215;28;20023;-84
2021/12/12 02:21:55;;;;;;;14.85;3.30;;;;;;;;;;4947035;28;20038;-85
2021/12/12 02:37:43;;;;;;;5.82;2.80;;;;;;;;;;4963389;28;20096;-85
2021/12/12 02:40:13;;;;;;;15.32;3.38;;;;;;;;;;4963768;28;20094;-86
2021/12/12 02:42:40;;;;;;;12.95;3.35;;;;;;;;;;4963437;28;20046;-83
2021/12/12 02:45:08;;;;;;;5.18;2.65;;;;;;;;;;4946384;28;20391;-86
2021/12/12 02:47:35;;;;;;;11.52;2.85;;;;;;;;;;4964296;28;20111;-84
2021/12/12 02:50:13;;;;;;;11.60;3.38;;;;;;;;;;4946850;28;20477;-85
2021/12/12 02:52:41;;;;;;;19.73;3.30;;;;;;;;;;4964292;28;20030;-84
2021/12/12 02:55:13;;;;;;;5.28;2.60;;;;;;;;;;4963806;28;20032;-85
2021/12/12 02:57:40;;;;;;;8.68;3.13;;;;;;;;;;4946455;28;20467;-87
2021/12/12 03:00:08;;;;;;;13.43;3.00;;;;;;;;;;4946550;28;20031;-86
2021/12/12 03:02:43;;;;;;;10.10;2.95;;;;;;;;;;4963560;28;20047;-84
2021/12/12 03:05:09;;;;;;;12.70;3.28;;;;;;;;;;4944141;28;20062;-81
2021/12/12 03:07:35;;;;;;;6.72;2.80;;;;;;;;;;4944642;28;20139;-87
2021/12/12 03:10:05;;;;;;;10.95;3.28;;;;;;;;;;4944125;28;20077;-87
2021/12/12 03:12:33;;;;;;;12.25;2.80;;;;;;;;;;4952674;28;20038;-84
2021/12/12 03:15:01;;;;;;;14.80;3.97;;;;;;;;;;4945446;28;20051;-84
2021/12/12 03:17:27;;;;;;;10.88;2.80;;;;;;;;;;4945038;28;20437;-85
2021/12/12 03:19:55;;;;;;;10.55;2.78;;;;;;;;;;4962465;28;20035;-84
2021/12/12 03:22:24;;;;;;;10.90;2.80;;;;;;;;;;4961876;28;20023;-85
2021/12/12 03:24:50;;;;;;;7.88;2.95;;;;;;;;;;4962515;28;20110;-87
2021/12/12 03:27:16;;;;;;;16.23;2.97;;;;;;;;;;4962591;28;20038;-86
2021/12/12 03:29:43;;;;;;;10.00;3.17;;;;;;;;;;4962333;28;20038;-86
2021/12/12 03:32:19;;;;;;;13.27;2.80;;;;;;;;;;4944187;28;20027;-85
2021/12/12 03:34:47;;;;;;;6.20;2.80;;;;;;;;;;4962061;28;20399;-85
2021/12/12 03:37:15;;;;;;;13.60;3.28;;;;;;;;;;4944939;28;20023;-85
2021/12/12 03:39:42;;;;;;;11.48;3.63;;;;;;;;;;4962168;28;20038;-85
2021/12/12 03:42:11;;;;;;;6.95;3.38;;;;;;;;;;4961805;28;20020;-86
2021/12/12 03:44:38;;;;;;;10.10;3.00;;;;;;;;;;4961714;28;20023;-84
2021/12/12 03:47:12;;;;;;;12.32;3.30;;;;;;;;;;4961492;28;20035;-84
2021/12/12 03:49:39;;;;;;;14.20;3.33;;;;;;;;;;4961372;28;20035;-84
2021/12/12 03:52:09;;;;;;;11.65;2.92;;;;;;;;;;4962153;29;20038;-85
2021/12/12 03:54:35;;;;;;;8.32;2.78;;;;;;;;;;4960280;28;20024;-86
2021/12/12 03:57:02;;;;;;;16.90;3.17;;;;;;;;;;4964351;28;20110;-87
2021/12/12 03:59:28;;;;;;;14.45;2.75;;;;;;;;;;4949624;28;20023;-84
2021/12/12 04:01:54;;;;;;;7.10;3.15;;;;;;;;;;4945260;28;20035;-85
2021/12/12 04:04:23;;;;;;;11.43;3.15;;;;;;;;;;4960575;28;20114;-87
2021/12/12 04:06:50;;;;;;;12.30;3.13;;;;;;;;;;4943743;28;20119;-86
2021/12/12 04:09:17;;;;;;;7.28;3.10;;;;;;;;;;4943904;28;20372;-84
2021/12/12 04:11:45;;;;;;;7.97;2.88;;;;;;;;;;4961656;28;20493;-85
2021/12/12 04:14:11;;;;;;;9.80;3.13;;;;;;;;;;4961705;28;20447;-85
2021/12/12 04:16:39;;;;;;;9.05;2.95;;;;;;;;;;4995663;23;20061;-80
2021/12/12 04:19:06;;;;;;;8.88;3.35;;;;;;;;;;5006424;28;20031;-81
2021/12/12 04:21:33;;;;;;;8.73;3.10;;;;;;;;;;5006425;28;20051;-81
2021/12/12 04:23:59;;;;;;;6.75;2.65;;;;;;;;;;5003070;28;20022;-80
2021/12/12 04:26:26;;;;;;;12.95;2.85;;;;;;;;;;5005412;28;20111;-82
2021/12/12 04:28:57;;;;;;;7.97;3.20;;;;;;;;;;5003964;28;20056;-81
2021/12/12 04:31:24;;;;;;;11.27;3.72;;;;;;;;;;5006742;28;20042;-81
2021/12/12 04:33:51;;;;;;;12.18;3.40;;;;;;;;;;5002396;28;20094;-82
2021/12/12 04:36:17;;;;;;;16.20;3.30;;;;;;;;;;5002071;28;20030;-80
2021/12/12 04:38:43;;;;;;;13.48;3.42;;;;;;;;;;4999206;28;20035;-80
2021/12/12 04:41:09;;;;;;;19.48;3.50;;;;;;;;;;5001597;28;20397;-80
2021/12/12 04:43:35;;;;;;;11.38;2.95;;;;;;;;;;4999910;28;20030;-81
2021/12/12 04:46:09;;;;;;;12.65;3.85;;;;;;;;;;4997794;28;20027;-80
2021/12/12 04:51:27;;;;;;;8.60;3.28;;;;;;;;;;4996687;28;20049;-81
2021/12/12 04:53:53;;;;;;;12.52;3.13;;;;;;;;;;4995251;28;20049;-81
2021/12/12 04:56:37;;;;;;;6.95;2.95;;;;;;;;;;4996293;28;20023;-80
2021/12/12 04:59:22;;;;;;;13.90;2.83;;;;;;;;;;4995871;28;20018;-81
2021/12/12 05:02:04;;;;;;;16.13;3.28;;;;;;;;;;4996029;28;20030;-80
2021/12/12 05:04:33;;;;;;;10.13;3.00;;;;;;;;;;4998264;28;20027;-80
2021/12/12 05:07:02;;;;;;;9.23;3.55;;;;;;;;;;4998002;28;20037;-80
2021/12/12 05:09:28;;;;;;;9.02;3.15;;;;;;;;;;4996044;28;20113;-81
2021/12/12 05:12:08;;;;;;;5.70;2.75;;;;;;;;;;4995279;28;20046;-81
2021/12/12 05:14:36;;;;;;;6.72;3.25;;;;;;;;;;4995158;28;20019;-81
2021/12/12 05:17:11;;;;;;;16.45;3.05;;;;;;;;;;4995564;28;20109;-80
2021/12/12 05:19:45;;;;;;;7.80;2.97;;;;;;;;;;5006972;28;20029;-81
2021/12/12 05:22:13;;;;;;;5.35;2.75;;;;;;;;;;5005634;28;20056;-83
2021/12/12 05:24:39;;;;;;;11.82;2.92;;;;;;;;;;5005077;28;20054;-81
2021/12/12 05:27:07;;;;;;;14.70;2.97;;;;;;;;;;4997605;28;20038;-82
2021/12/12 05:29:37;;;;;;;10.35;3.20;;;;;;;;;;4994988;28;20122;-81
2021/12/12 05:32:05;;;;;;;12.33;2.57;;;;;;;;;;4995917;28;20107;-81
2021/12/12 05:34:33;;;;;;;7.93;2.40;;;;;;;;;;4995653;28;20246;-82
2021/12/12 05:37:01;;;;;;;8.70;3.05;;;;;;;;;;4996708;28;20107;-82
2021/12/12 05:39:28;;;;;;;11.70;2.72;;;;;;;;;;4996017;28;20022;-81
2021/12/12 05:41:55;;;;;;;7.63;3.03;;;;;;;;;;4995710;28;20031;-80
2021/12/12 05:44:22;;;;;;;6.85;3.08;;;;;;;;;;4995690;28;20026;-82
2021/12/12 05:46:48;;;;;;;10.70;3.03;;;;;;;;;;4997380;28;20150;-82
2021/12/12 05:49:14;;;;;;;10.02;2.70;;;;;;;;;;4998140;28;20034;-82
2021/12/12 05:51:40;;;;;;;10.73;2.88;;;;;;;;;;4998764;28;20022;-81
2021/12/12 05:54:06;;;;;;;13.23;2.88;;;;;;;;;;4998194;28;20501;-81
2021/12/12 05:56:34;;;;;;;9.10;2.83;;;;;;;;;;4999055;28;20022;-82
2021/12/12 05:59:04;;;;;;;8.18;3.03;;;;;;;;;;4999045;28;20022;-81
2021/12/12 06:01:31;;;;;;;6.00;2.33;;;;;;;;;;4997356;28;20034;-81
2021/12/12 06:03:57;;;;;;;8.25;2.75;;;;;;;;;;4998147;28;20064;-81
2021/12/12 06:06:25;;;;;;;6.25;2.50;;;;;;;;;;4998317;28;20026;-81
2021/12/12 06:08:52;;;;;;;10.48;2.88;;;;;;;;;;4996493;28;20037;-81
2021/12/12 06:11:21;;;;;;;10.32;2.45;;;;;;;;;;4996763;28;20033;-81
2021/12/12 06:13:48;;;;;;;12.95;2.97;;;;;;;;;;4996546;28;20495;-81
2021/12/12 06:16:19;;;;;;;11.75;2.78;;;;;;;;;;4996715;28;20031;-80
2021/12/12 06:18:48;;;;;;;6.72;2.60;;;;;;;;;;4997370;28;20015;-81
2021/12/12 06:21:14;;;;;;;10.90;2.63;;;;;;;;;;4997617;28;20065;-81
2021/12/12 06:23:40;;;;;;;6.63;2.60;;;;;;;;;;4997087;28;20116;-81
2021/12/12 06:26:06;;;;;;;7.03;3.05;;;;;;;;;;4998686;28;20033;-83
2021/12/12 06:28:34;;;;;;;6.07;3.00;;;;;;;;;;4999142;28;20030;-82
2021/12/12 06:31:01;;;;;;;13.95;3.78;;;;;;;;;;4998207;28;20023;-82
2021/12/12 06:33:27;;;;;;;4.85;2.53;;;;;;;;;;4997736;28;20030;-82
2021/12/12 06:35:54;;;;;;;13.95;2.60;;;;;;;;;;4997631;28;20038;-82
2021/12/12 06:38:21;;;;;;;6.38;3.65;;;;;;;;;;4996465;28;20030;-82
2021/12/12 06:40:48;;;;;;;8.43;3.33;;;;;;;;;;4995725;28;20054;-82
2021/12/12 06:43:15;;;;;;;12.00;3.60;;;;;;;;;;4996303;28;20034;-82
2021/12/12 06:45:42;;;;;;;10.55;2.88;;;;;;;;;;4994642;28;20473;-80
2021/12/12 06:48:09;;;;;;;9.05;3.20;;;;;;;;;;4996251;28;20048;-81
2021/12/12 06:50:36;;;;;;;8.82;3.17;;;;;;;;;;4995866;28;20037;-80
2021/12/12 06:53:02;;;;;;;10.90;3.00;;;;;;;;;;5009094;28;20037;-80
2021/12/12 06:55:29;;;;;;;9.57;2.67;;;;;;;;;;5008393;28;20425;-81
2021/12/12 06:57:56;;;;;;;14.48;3.03;;;;;;;;;;5001948;28;20049;-82
2021/12/12 07:00:24;;;;;;;10.32;2.38;;;;;;;;;;5001156;28;20022;-81
2021/12/12 07:02:50;;;;;;;5.35;2.47;;;;;;;;;;4999971;28;20109;-82
2021/12/12 07:05:18;;;;;;;7.43;2.33;;;;;;;;;;5001173;28;20454;-82
2021/12/12 07:07:45;;;;;;;7.85;2.50;;;;;;;;;;5008942;28;20026;-81
2021/12/12 07:10:12;;;;;;;7.40;2.78;;;;;;;;;;5001184;28;20411;-82
2021/12/12 07:12:40;;;;;;;8.73;2.45;;;;;;;;;;5009680;28;20029;-84
2021/12/12 07:15:08;;;;;;;6.40;2.25;;;;;;;;;;5002268;28;20029;-86
2021/12/12 07:17:34;;;;;;;4.55;2.35;;;;;;;;;;4995950;28;20034;-85
2021/12/12 07:20:00;;;;;;;7.45;2.95;;;;;;;;;;4993147;28;20027;-85
2021/12/12 07:22:26;;;;;;;8.50;2.50;;;;;;;;;;4994508;28;20106;-84
2021/12/12 07:24:52;;;;;;;13.88;3.28;;;;;;;;;;4995291;28;20054;-84
2021/12/12 07:27:18;;;;;;;9.07;2.85;;;;;;;;;;4995745;28;20034;-84
2021/12/12 07:29:45;;;;;;;12.25;3.70;;;;;;;;;;4998231;28;20442;-85
2021/12/12 07:32:11;;;;;;;6.20;3.15;;;;;;;;;;4997791;28;20419;-84
2021/12/12 07:34:37;;;;;;;6.07;3.45;;;;;;;;;;4996899;28;20026;-84
2021/12/12 07:37:05;;;;;;;9.88;3.55;;;;;;;;;;4996913;28;20101;-84
2021/12/12 07:39:32;;;;;;;7.65;2.75;;;;;;;;;;4996887;28;20093;-84
2021/12/12 07:42:00;;;;;;;8.73;3.28;;;;;;;;;;4997335;28;20058;-84
2021/12/12 07:44:29;;;;;;;6.63;3.03;;;;;;;;;;4996705;28;20097;-84
2021/12/12 07:46:57;;;;;;;8.57;3.17;;;;;;;;;;4995293;28;20026;-84
2021/12/12 07:49:27;;;;;;;13.13;2.95;;;;;;;;;;4996902;28;20046;-83
2021/12/12 07:51:53;;;;;;;10.55;2.70;;;;;;;;;;4995109;28;20220;-84
2021/12/12 07:54:19;;;;;;;5.80;2.55;;;;;;;;;;4995662;28;20029;-84
2021/12/12 07:56:46;;;;;;;4.47;2.67;;;;;;;;;;4996533;28;20154;-84
2021/12/12 07:59:13;;;;;;;11.10;3.33;;;;;;;;;;4996318;28;20101;-82
2021/12/12 08:01:41;;;;;;;6.00;2.72;;;;;;;;;;4995862;28;20023;-82
2021/12/12 08:04:08;;;;;;;10.95;3.70;;;;;;;;;;4996824;28;20034;-83
2021/12/12 08:06:34;;;;;;;10.88;2.95;;;;;;;;;;5014986;28;20058;-83
2021/12/12 08:09:01;;;;;;;8.30;3.03;;;;;;;;;;4995718;28;20038;-83
2021/12/12 08:11:28;;;;;;;9.45;3.50;;;;;;;;;;4997394;28;20114;-84
2021/12/12 08:13:55;;;;;;;11.27;3.45;;;;;;;;;;4995879;28;20027;-85
2021/12/12 08:16:21;;;;;;;8.77;3.08;;;;;;;;;;4993165;28;20060;-84
2021/12/12 08:18:48;;;;;;;11.48;3.10;;;;;;;;;;4992995;28;20034;-85
2021/12/12 08:21:14;;;;;;;8.95;3.00;;;;;;;;;;4995051;28;20034;-85
2021/12/12 08:23:41;;;;;;;8.30;2.60;;;;;;;;;;4993594;28;20111;-83
2021/12/12 08:26:11;;;;;;;5.40;2.42;;;;;;;;;;4991582;28;20030;-86
2021/12/12 08:28:42;;;;;;;9.32;2.67;;;;;;;;;;4992654;28;20034;-86
2021/12/12 08:31:13;;;;;;;;;;;;;;;;;;4977897;28;20094;-85
2021/12/12 08:33:41;;;;;;;8.88;2.83;;;;;;;;;;4983624;28;19906;-86
2021/12/12 08:36:08;;;;;;;9.45;3.53;;;;;;;;;;4999636;28;20082;-82
2021/12/12 08:38:35;;;;;;;7.45;2.35;;;;;;;;;;5014109;28;20030;-82
2021/12/12 08:41:02;;;;;;;9.23;2.92;;;;;;;;;;5014242;28;20512;-81
2021/12/12 08:43:29;;;;;;;6.55;2.25;;;;;;;;;;4997298;28;20075;-83
2021/12/12 08:45:58;;;;;;;5.63;2.20;;;;;;;;;;4998652;28;20023;-82
2021/12/12 08:48:26;;;;;;;7.72;2.00;;;;;;;;;;4994517;28;20049;-83
2021/12/12 08:50:55;;;;;;;8.40;2.90;;;;;;;;;;4994370;28;20042;-84
2021/12/12 08:53:21;;;;;;;8.40;3.00;;;;;;;;;;4992574;28;20030;-83
2021/12/12 08:55:49;;;;;;;9.10;3.35;;;;;;;;;;4995510;28;20486;-82
2021/12/12 08:58:18;;;;;;;8.57;3.33;;;;;;;;;;4993938;28;20502;-83
2021/12/12 09:00:49;;;;;;;8.82;2.95;;;;;;;;;;4985944;28;20069;-83
2021/12/12 09:03:37;;;;;;;7.72;3.28;;;;;;;;;;4975355;28;20122;-82
2021/12/12 09:06:04;;;;;;;7.72;2.80;;;;;;;;;;4987512;28;20031;-82
2021/12/12 09:08:30;;;;;;;6.75;2.70;;;;;;;;;;4993321;28;20095;-83
2021/12/12 09:10:58;;;;;;;8.18;3.08;;;;;;;;;;5008149;28;20101;-84
2021/12/12 09:13:30;;;;;;;8.45;3.17;;;;;;;;;;5009082;28;20540;-83
2021/12/12 09:16:05;;;;;;;14.52;3.58;;;;;;;;;;4990237;28;20092;-83
2021/12/12 09:18:37;;;;;;;9.60;2.85;;;;;;;;;;4992927;28;20489;-82
2021/12/12 09:21:07;;;;;;;8.75;2.72;;;;;;;;;;4993366;28;20042;-83
2021/12/12 09:23:49;;;;;;;12.13;3.97;;;;;;;;;;4996757;28;20026;-82
2021/12/12 09:26:18;;;;;;;7.28;3.10;;;;;;;;;;4998714;28;20052;-83
2021/12/12 09:29:06;;;;;;;8.50;3.65;;;;;;;;;;4998289;28;20030;-83
2021/12/12 09:31:38;;;;;;;3.75;2.53;;;;;;;;;;4997557;28;20056;-82
2021/12/12 09:34:20;;;;;;;6.30;2.72;;;;;;;;;;4998279;28;20023;-83
2021/12/12 09:36:51;;;;;;;12.25;3.20;;;;;;;;;;4997891;28;20120;-82
2021/12/12 09:39:17;;;;;;;;;;;;;;;;;;4999720;28;20153;-82
2021/12/12 09:41:49;;;;;;;6.47;2.53;;;;;;;;;;4998544;28;19914;-83
2021/12/12 09:44:24;;;;;;;11.23;2.75;;;;;;;;;;4998029;28;20041;-82
2021/12/12 09:47:24;;;;;;;8.63;2.97;;;;;;;;;;4979444;28;20456;-82
2021/12/12 09:53:01;;;;;;;8.10;3.05;;;;;;;;;;5033053;28;20035;-82
2021/12/12 09:55:33;;;;;;;9.57;2.42;;;;;;;;;;5008420;28;20026;-83
2021/12/12 09:58:01;;;;;;;9.23;2.60;;;;;;;;;;4991677;28;20050;-81
2021/12/12 10:00:48;;;;;;;8.45;2.75;;;;;;;;;;4998478;28;20027;-82
2021/12/12 10:03:21;;;;;;;12.27;2.92;;;;;;;;;;5006907;28;20049;-83
2021/12/12 10:05:52;;;;;;;10.35;2.78;;;;;;;;;;5014499;28;20459;-83
2021/12/12 10:08:40;;;;;;;8.75;2.92;;;;;;;;;;4996544;28;20437;-86
2021/12/12 10:11:24;;;;;;;9.25;3.13;;;;;;;;;;4997369;28;20026;-82
2021/12/12 10:14:01;;;;;;;10.60;2.00;;;;;;;;;;4998741;28;20031;-82
2021/12/12 10:16:39;;;;;;;4.88;2.47;;;;;;;;;;4998316;28;20060;-84
2021/12/12 10:19:25;;;;;;;11.55;2.40;;;;;;;;;;4995969;28;20371;-86
2021/12/12 10:21:58;;;;;;;7.78;2.72;;;;;;;;;;5004566;28;20038;-87
2021/12/12 10:24:35;;;;;;;7.78;2.90;;;;;;;;;;5011086;28;20029;-86
2021/12/12 10:27:15;;;;;;;5.43;2.70;;;;;;;;;;4996717;28;20030;-86
2021/12/12 10:29:59;;;;;;;7.18;2.58;;;;;;;;;;4982852;28;20036;-85
2021/12/12 10:32:28;;;;;;;4.78;2.47;;;;;;;;;;4995302;28;20383;-85
2021/12/12 10:35:03;;;;;;;12.65;2.10;;;;;;;;;;4993495;28;20030;-85
2021/12/12 10:37:32;;;;;;;7.93;2.35;;;;;;;;;;4996049;28;20086;-86
2021/12/12 10:40:01;;;;;;;6.07;2.58;;;;;;;;;;4995565;28;20501;-85
2021/12/12 10:42:31;;;;;;;5.47;2.88;;;;;;;;;;4974771;28;20430;-86
2021/12/12 10:45:03;;;;;;;8.37;2.23;;;;;;;;;;4987696;28;20136;-86
2021/12/12 10:47:48;;;;;;;11.27;3.20;;;;;;;;;;4994020;28;20022;-87
2021/12/12 10:50:16;;;;;;;8.55;2.22;;;;;;;;;;4992414;28;20102;-86
2021/12/12 10:52:45;;;;;;;9.98;2.80;;;;;;;;;;4992079;28;20101;-87
2021/12/12 10:55:11;;;;;;;11.20;3.03;;;;;;;;;;4992346;28;20058;-86
2021/12/12 10:57:38;;;;;;;8.10;3.22;;;;;;;;;;4992110;28;20018;-86
2021/12/12 11:00:16;;;;;;;9.05;3.08;;;;;;;;;;4992509;28;20064;-85
2021/12/12 11:03:03;;;;;;;10.35;3.08;;;;;;;;;;4991163;28;20171;-86
2021/12/12 11:05:36;;;;;;;9.80;3.30;;;;;;;;;;4991522;28;20414;-85
2021/12/12 11:08:25;;;;;;;11.55;3.35;;;;;;;;;;4992754;28;20389;-87
2021/12/12 11:10:52;;;;;;;8.18;3.45;;;;;;;;;;4997434;28;20125;-87
2021/12/12 11:13:20;;;;;;;5.55;2.80;;;;;;;;;;5003651;28;20034;-87
2021/12/12 11:15:51;;;;;;;12.07;2.97;;;;;;;;;;5002187;28;20033;-86
2021/12/12 11:18:24;;;;;;;5.70;3.10;;;;;;;;;;5001741;28;20385;-87
2021/12/12 11:20:56;;;;;;;13.38;2.80;;;;;;;;;;5000924;28;20041;-88
2021/12/12 11:23:28;;;;;;;12.77;2.95;;;;;;;;;;5001515;28;20030;-87
2021/12/12 11:25:57;;;;;;;9.30;2.70;;;;;;;;;;4988743;28;20038;-86
2021/12/12 11:28:38;;;;;;;13.32;2.55;;;;;;;;;;4993448;28;20050;-87
2021/12/12 11:31:27;;;;;;;7.47;3.13;;;;;;;;;;5000631;28;20034;-88
2021/12/12 11:33:54;;;;;;;12.93;3.45;;;;;;;;;;5004215;28;20026;-86
2021/12/12 11:36:25;;;;;;;11.43;3.40;;;;;;;;;;4994772;28;20042;-86
2021/12/12 11:38:53;;;;;;;10.80;2.90;;;;;;;;;;4992537;28;20026;-86
2021/12/12 11:41:25;;;;;;;12.85;2.80;;;;;;;;;;5033225;28;20026;-87
2021/12/12 11:44:01;;;;;;;9.52;2.88;;;;;;;;;;5025788;28;20049;-87
2021/12/12 11:46:28;;;;;;;6.35;2.97;;;;;;;;;;5074410;28;20008;-87
2021/12/12 11:49:10;;;;;;;7.40;2.92;;;;;;;;;;5094433;28;20046;-87
2021/12/12 11:51:39;;;;;;;8.73;2.42;;;;;;;;;;4993482;28;20050;-87
2021/12/12 11:54:14;;;;;;;7.60;2.90;;;;;;;;;;4991420;28;20024;-87
2021/12/12 11:56:45;;;;;;;5.70;1.85;;;;;;;;;;4991568;28;20031;-86
2021/12/12 11:59:15;;;;;;;12.25;3.00;;;;;;;;;;4990100;28;20022;-85
2021/12/12 12:01:41;;;;;;;15.18;2.95;;;;;;;;;;4977249;28;20034;-86
2021/12/12 12:04:11;;;;;;;13.38;3.88;;;;;;;;;;4982786;28;20087;-86
2021/12/12 12:06:50;;;;;;;4.93;2.22;;;;;;;;;;4992339;28;20031;-87
2021/12/12 12:09:52;;;;;;;10.07;2.40;;;;;;;;;;4991434;28;20026;-86
2021/12/12 12:12:38;;;;;;;11.27;3.00;;;;;;;;;;4991707;28;20030;-86
2021/12/12 12:15:23;;;;;;;16.88;2.58;;;;;;;;;;4989031;28;20041;-86
2021/12/12 12:17:58;;;;;;;11.40;2.47;;;;;;;;;;4991149;28;20061;-87
2021/12/12 12:20:30;;;;;;;9.98;3.22;;;;;;;;;;4991446;28;20461;-85
2021/12/12 12:23:02;;;;;;;9.02;3.25;;;;;;;;;;4990751;28;20512;-86
2021/12/12 12:25:40;;;;;;;7.88;2.80;;;;;;;;;;4991150;28;20042;-85
2021/12/12 12:28:26;;;;;;;7.53;2.65;;;;;;;;;;4989440;28;20034;-87
2021/12/12 12:30:55;;;;;;;7.88;2.85;;;;;;;;;;4974746;28;20038;-86
2021/12/12 12:33:25;;;;;;;7.72;2.30;;;;;;;;;;4988658;28;20492;-86
2021/12/12 12:36:31;;;;;;;7.55;2.38;;;;;;;;;;4989232;28;20027;-86
2021/12/12 12:39:16;;;;;;;5.22;3.13;;;;;;;;;;4925802;28;20970;-86
2021/12/12 12:42:01;;;;;;;8.68;3.20;;;;;;;;;;4984284;28;20049;-86
2021/12/12 12:44:33;;;;;;;9.75;2.70;;;;;;;;;;4990740;28;20059;-85
2021/12/12 12:47:17;;;;;;;9.95;3.25;;;;;;;;;;5009836;28;20105;-85
2021/12/12 12:50:04;;;;;;;9.57;2.97;;;;;;;;;;4973622;28;20453;-84
2021/12/12 12:52:49;;;;;;;5.90;2.60;;;;;;;;;;4971173;28;20062;-86
2021/12/12 12:55:26;;;;;;;7.10;2.63;;;;;;;;;;4990270;28;20030;-86
2021/12/12 12:58:07;;;;;;;8.90;3.17;;;;;;;;;;5003740;28;20143;-85
2021/12/12 13:00:35;;;;;;;10.27;3.10;;;;;;;;;;4989632;28;20056;-84
2021/12/12 13:03:06;;;;;;;12.82;3.42;;;;;;;;;;4990294;28;20018;-87
2021/12/12 13:05:51;;;;;;;9.63;2.53;;;;;;;;;;4988460;28;20027;-85
2021/12/12 13:08:37;;;;;;;9.55;3.00;;;;;;;;;;4988900;28;20030;-86
2021/12/12 13:11:05;;;;;;;9.23;2.92;;;;;;;;;;4970755;28;20060;-86
2021/12/12 13:13:52;;;;;;;11.07;3.15;;;;;;;;;;4990504;28;20071;-83
2021/12/12 13:16:26;;;;;;;12.00;2.53;;;;;;;;;;5000810;28;20043;-85
2021/12/12 13:19:03;;;;;;;9.73;3.10;;;;;;;;;;4992664;28;20505;-85
2021/12/12 13:21:43;;;;;;;15.93;3.10;;;;;;;;;;4991205;28;20025;-85
2021/12/12 13:24:27;;;;;;;5.88;2.72;;;;;;;;;;4988663;28;20026;-85
2021/12/12 13:27:05;;;;;;;7.28;2.90;;;;;;;;;;4989929;28;20401;-85
2021/12/12 13:29:44;;;;;;;7.45;2.97;;;;;;;;;;4989667;28;20588;-85
2021/12/12 13:32:17;;;;;;;7.57;3.00;;;;;;;;;;5006871;28;20041;-85
2021/12/12 13:34:48;;;;;;;8.63;2.67;;;;;;;;;;5012007;28;20041;-87
2021/12/12 13:37:32;;;;;;;9.40;3.08;;;;;;;;;;5012616;28;20034;-86
2021/12/12 13:40:16;;;;;;;8.20;2.90;;;;;;;;;;4989051;28;20037;-87
2021/12/12 13:49:20;;;;;;;;;;;;;;;;;;;;;
2021/12/12 13:52:31;;;;;;;13.00;3.00;;;;;;;;;;4972464;28;20053;-87
2021/12/12 13:55:22;;;;;;;9.38;2.40;;;;;;;;;;4921100;28;20030;-86
2021/12/12 14:04:40;;;;;;;11.75;3.17;;;;;;;;;;4930899;28;20082;-87
2021/12/12 14:07:07;;;;;;;9.90;2.90;;;;;;;;;;4980640;28;20038;-87
2021/12/12 14:09:34;;;;;;;8.27;2.80;;;;;;;;;;4990526;28;20038;-87
2021/12/12 14:12:06;;;;;;;9.95;3.15;;;;;;;;;;4994164;28;20022;-86
2021/12/12 14:14:53;;;;;;;14.65;2.95;;;;;;;;;;4994083;28;20386;-87
2021/12/12 14:17:30;;;;;;;10.68;2.92;;;;;;;;;;4993233;28;20125;-84
2021/12/12 14:20:19;;;;;;;8.57;2.95;;;;;;;;;;4994837;28;20038;-86
2021/12/12 14:22:48;;;;;;;12.52;3.20;;;;;;;;;;4993423;28;20027;-84
2021/12/12 14:25:14;;;;;;;11.85;3.65;;;;;;;;;;4993301;28;20050;-86
2021/12/12 14:27:43;;;;;;;8.05;2.95;;;;;;;;;;4992875;28;20038;-87
2021/12/12 14:30:13;;;;;;;12.18;3.08;;;;;;;;;;4993005;28;20068;-86
2021/12/12 14:32:42;;;;;;;14.75;3.47;;;;;;;;;;4991589;28;20046;-87
2021/12/12 14:35:19;;;;;;;13.77;3.33;;;;;;;;;;4993619;28;20022;-86
2021/12/12 14:37:46;;;;;;;17.15;3.22;;;;;;;;;;4994185;28;20128;-85
2021/12/12 14:40:15;;;;;;;9.50;3.00;;;;;;;;;;4994083;28;20042;-84
2021/12/12 14:42:46;;;;;;;14.75;3.40;;;;;;;;;;4993501;28;20052;-86
2021/12/12 14:45:34;;;;;;;13.73;3.72;;;;;;;;;;4996408;28;20080;-84
2021/12/12 14:48:03;;;;;;;8.15;3.58;;;;;;;;;;4996771;28;20203;-86
2021/12/12 14:50:55;;;;;;;8.57;2.90;;;;;;;;;;4993722;28;20034;-85
2021/12/12 14:53:24;;;;;;;10.05;3.17;;;;;;;;;;4996022;28;20429;-83
2021/12/12 14:55:58;;;;;;;8.27;3.15;;;;;;;;;;4995192;28;20049;-85
2021/12/12 14:58:27;;;;;;;12.60;3.47;;;;;;;;;;4994900;28;20046;-83
2021/12/12 15:00:56;;;;;;;11.65;3.83;;;;;;;;;;4975822;28;20035;-83
2021/12/12 15:03:27;;;;;;;12.80;3.75;;;;;;;;;;4975203;28;20132;-85
2021/12/12 15:06:16;;;;;;;13.00;3.60;;;;;;;;;;4975332;28;20096;-85
2021/12/12 15:08:48;;;;;;;10.68;3.50;;;;;;;;;;4979769;28;20031;-84
2021/12/12 15:11:14;;;;;;;11.18;3.30;;;;;;;;;;4974578;28;20027;-84
2021/12/12 15:13:41;;;;;;;9.57;3.25;;;;;;;;;;4990737;28;20033;-84
2021/12/12 15:16:34;;;;;;;9.55;4.05;;;;;;;;;;4991896;28;20026;-84
2021/12/12 15:19:06;;;;;;;5.57;3.47;;;;;;;;;;4993341;28;20046;-83
2021/12/12 15:21:34;;;;;;;12.90;3.40;;;;;;;;;;4993139;28;20113;-83
2021/12/12 15:24:03;;;;;;;12.18;3.58;;;;;;;;;;4991038;28;20032;-84
2021/12/12 15:26:31;;;;;;;15.05;3.97;;;;;;;;;;4994135;28;20033;-84
2021/12/12 15:28:58;;;;;;;12.75;4.03;;;;;;;;;;4993590;28;20157;-85
2021/12/12 15:31:27;;;;;;;8.30;3.47;;;;;;;;;;4993304;28;20038;-81
2021/12/12 15:33:55;;;;;;;13.07;3.50;;;;;;;;;;4993537;28;20106;-83
2021/12/12 15:36:25;;;;;;;11.43;3.25;;;;;;;;;;4993575;28;20036;-85
2021/12/12 15:38:52;;;;;;;14.00;3.67;;;;;;;;;;4998280;28;20034;-84